Home > Products > Valid Products > MTR

000
SAUS43 KMQT 310404 COR
MTRP53
METAR KP53 310356Z AUTO 33014KT 17/15 A2984 RMK AO1 SLP104 T01670150





000
SAUS43 KMQT 310352
MTRP59
METAR KP59 310351Z AUTO 34004KT 14/12 A2989 RMK AO1 SLP120 T01440122





000
SAUS43 KMQT 310304 COR
MTRP53
METAR KP53 310256Z AUTO 34010KT 16/14 A2983 RMK AO1 SLP099 60001
T01610144 51018





000
SAUS43 KMQT 310259
MTRP59
METAR KP59 310251Z AUTO 35007KT 14/12 A2988 RMK AO1 SLP118 T01440122
51014





000
SAUS43 KMQT 310203 COR
MTRP53
METAR KP53 310156Z AUTO 32007KT 15/13 A2982 RMK AO1 SLP098 P0001
T01500133





000
SAUS43 KMQT 310159
MTRP59
METAR KP59 310151Z AUTO 36007KT 14/12 A2987 RMK AO1 SLP115 T01440122





000
SAUS43 KMQT 310104 COR
MTRP53
METAR KP53 310056Z AUTO 31008KT 15/13 A2980 RMK AO1 SLP091 T01500133





000
SAUS43 KMQT 310059
MTRP59
METAR KP59 310051Z AUTO 36007KT 14/12 A2986 RMK AO1 SLP109 T01440122





000
SAUS43 KMQT 310004 COR
MTRP53
METAR KP53 302356Z AUTO 31012KT 15/14 A2977 RMK AO1 SLP082 60112
T01500139 10178 20150 53004





000
SAUS43 KMQT 302357
MTRP59
METAR KP59 302351Z AUTO 36009KT 14/12 A2984 RMK AO1 SLP104 T01440122
10144 20139 51010





000
SAUS43 KMQT 302304 COR
MTRP53
METAR KP53 302256Z AUTO 31011KT 15/14 A2976 RMK AO1 SLP079 P0005
T01500139





000
SAUS43 KMQT 302258
MTRP59
METAR KP59 302251Z AUTO 36010KT 14/12 A2983 RMK AO1 SLP101 T01440122





000
SAUS43 KMQT 302204 COR
MTRP53
METAR KP53 302156Z AUTO 31011G14KT 15/14 A2976 RMK AO1 SLP078 P0030
T01500139





000
SAUS43 KMQT 302158
MTRP59
METAR KP59 302151Z AUTO 36009KT 14/12 A2982 RMK AO1 SLP097 T01390122





000
SAUS43 KMQT 302104 COR
MTRP53
METAR KP53 302056Z AUTO 00000KT 15/13 A2976 RMK AO1 SLP078 P0053
60077 T01500133 53005





000
SAUS43 KMQT 302059
MTRP59
METAR KP59 302051Z AUTO 02010KT 14/12 A2981 RMK AO1 SLP092 T01390122
58002





000
SAUS43 KMQT 302003 COR
MTRP53
METAR KP53 301956Z AUTO 31008KT 16/14 A2975 RMK AO1 SLP075 P0021
T01560139





000
SAUS43 KMQT 301958
MTRP59
METAR KP59 301951Z AUTO 01011KT 14/13 A2982 RMK AO1 SLP095 T01390128





000
SAUS43 KMQT 301903 COR
MTRP53
METAR KP53 301856Z AUTO 31009KT 17/15 A2974 RMK AO1 SLP072 P0003
T01670150





000
SAUS43 KMQT 301858
MTRP59
METAR KP59 301851Z AUTO 03009KT 14/13 A2982 RMK AO1 SLP094 T01390128





000
SAUS43 KMQT 301804 COR
MTRP53
METAR KP53 301756Z AUTO 05008KT 18/16 A2974 RMK AO1 WSHFT 1711
SLP072 P0010 60016 T01780161 10211 20178 53000





000
SAUS43 KMQT 301803 COR
MTRP53
METAR KP53 301756Z AUTO 05008KT 18/16 A2974 RMK AO1 WSHFT 1711
SLP072 P0010 60016 T01780161 10211 20178 53000





000
SAUS43 KMQT 301759
MTRP59
METAR KP59 301751Z AUTO 03010KT 14/12 A2981 RMK AO1 SLP094 T01390122
10139 20128 51005





000
SAUS43 KMQT 301738 COR
MTRP53
SPECI KP53 301731Z AUTO 33012KT 18/17 A2975 RMK AO1 WSHFT 1711 P0010
T01780167





000
SAUS43 KMQT 301703 COR
MTRP53
METAR KP53 301656Z AUTO 04007KT 19/18 A2974 RMK AO1 SLP070 P0002
T01890178





000
SAUS43 KMQT 301658
MTRP59
METAR KP59 301651Z AUTO 04008KT 14/12 A2981 RMK AO1 SLP090 T01390122





000
SAUS43 KMQT 301603 COR
MTRP53
METAR KP53 301556Z AUTO 04005KT 19/18 A2974 RMK AO1 SLP071 T01940178





000
SAUS43 KMQT 301559
MTRP59
METAR KP59 301551Z AUTO 04006KT 13/12 A2981 RMK AO1 SLP092 T01330122





000
SAUS43 KMQT 301504 COR
MTRP53
METAR KP53 301456Z AUTO 00000KT 21/19 A2974 RMK AO1 SLP070 P0001
60004 T02060189 56006





000
SAUS43 KMQT 301457
MTRP59
METAR KP59 301451Z AUTO 03005KT 13/12 A2980 RMK AO1 SLP089 T01330122
51004





000
SAUS43 KMQT 301404 COR
MTRP53
METAR KP53 301356Z AUTO 00000KT 21/19 A2975 RMK AO1 SLP072 P0001
T02110189





000
SAUS43 KMQT 301358
MTRP59
METAR KP59 301351Z AUTO 03007KT 13/12 A2979 RMK AO1 SLP087 T01280122





000
SAUS43 KMQT 301303 COR
MTRP53
METAR KP53 301256Z AUTO 00000KT 19/18 A2976 RMK AO1 SLP076 P0002
T01940183





000
SAUS43 KMQT 301258
MTRP59
METAR KP59 301251Z AUTO 03008KT 13/12 A2980 RMK AO1 SLP089 T01280117





000
SAUS43 KMQT 301204 COR
MTRP53
METAR KP53 301156Z AUTO 00000KT 19/18 A2976 RMK AO1 SLP077 P0003
60011 70091 T01940178 10200 20189 58001





000
SAUS43 KMQT 301159
MTRP59
METAR KP59 301151Z AUTO 02005KT 13/12 A2978 RMK AO1 SLP084 P0001
60044 70048 T01280117 10161 20128 53005





000
SAUS43 KMQT 301104 COR
MTRP53
METAR KP53 301056Z AUTO 20003KT 20/18 A2977 RMK AO1 SLP080 P0005
T02000183





000
SAUS43 KMQT 301059
MTRP59
METAR KP59 301051Z AUTO 02006KT 13/12 A2978 RMK AO1 SLP082 P0016
T01330122





000
SAUS43 KMQT 301003 COR
MTRP53
METAR KP53 300956Z AUTO 19004KT 20/18 A2978 RMK AO1 SLP081 P0003
T02000183





000
SAUS43 KMQT 300958
MTRP59
METAR KP59 300951Z AUTO 01004KT 13/13 A2977 RMK AO1 SLP077 P0020
T01330128





000
SAUS43 KMQT 300903 COR
MTRP53
METAR KP53 300856Z AUTO 19003KT 20/18 A2977 RMK AO1 SLP079 T02000183
58010





000
SAUS43 KMQT 300859
MTRP59
METAR KP59 300851Z AUTO 02004KT 14/14 A2977 RMK AO1 SLP078 P0004
60007 T01440139 50003





000
SAUS43 KMQT 300803 COR
MTRP53
METAR KP53 300756Z AUTO 16004KT 19/18 A2979 RMK AO1 SLP088 T01940178





000
SAUS43 KMQT 300759
MTRP59
METAR KP59 300751Z AUTO 00000KT 16/15 A2977 RMK AO1 SLP079 P0003
T01610150





000
SAUS43 KMQT 300703 COR
MTRP53
METAR KP53 300656Z AUTO 20005KT 20/18 A2979 RMK AO1 SLP088 T02000183





000
SAUS43 KMQT 300659
MTRP59
METAR KP59 300651Z AUTO 36006KT 14/13 A2978 RMK AO1 SLP082 T01440133





000
SAUS43 KMQT 300604 COR
MTRP53
METAR KP53 300556Z AUTO 19004KT 20/18 A2980 RMK AO1 SLP090 60074
T02000178 10211 20200 51002





000
SAUS43 KMQT 300558
MTRP59
METAR KP59 300551Z AUTO 35009KT 16/14 A2976 RMK AO1 SLP075 60002
T01560144 10189 20156 53000





000
SAUS43 KMQT 300504 COR
MTRP53
METAR KP53 300456Z AUTO 20006KT 21/18 A2980 RMK AO1 SLP090 P0002
T02060183 402110139





000
SAUS43 KMQT 300458
MTRP59
METAR KP59 300451Z AUTO 00000KT 19/17 A2975 RMK AO1 SLP069 T01890172
401890156





000
SAUS43 KMQT 300404 COR
MTRP53
METAR KP53 300356Z AUTO 18008KT 21/18 A2982 RMK AO1 PRESFR SLP097
P0072 T02060178





000
SAUS43 KMQT 300358
MTRP59
METAR KP59 300351Z AUTO 24005KT 18/17 A2977 RMK AO1 SLP077 T01830167





000
SAUS43 KMQT 300304 COR
MTRP53
METAR KP53 300256Z AUTO 18007KT 21/19 A2979 RMK AO1 SLP088 T02110189
58007





000
SAUS43 KMQT 300259
MTRP59
METAR KP59 300251Z AUTO 00000KT 18/16 A2976 RMK AO1 SLP073 P0001
60002 T01780161 58001





000
SAUS43 KMQT 300203 COR
MTRP53
METAR KP53 300156Z AUTO 18007KT 21/19 A2981 RMK AO1 SLP095 T02060189





000
SAUS43 KMQT 300159
MTRP59
METAR KP59 300151Z AUTO 25005KT 17/16 A2977 RMK AO1 SLP077 P0001
T01720161





000
SAUS43 KMQT 300104 COR
MTRP53
METAR KP53 300056Z AUTO 18006KT 21/18 A2981 RMK AO1 SLP095 T02060183





000
SAUS43 KMQT 300059
MTRP59
METAR KP59 300051Z AUTO 25005KT 17/16 A2976 RMK AO1 SLP074 T01720161





000
SAUS43 KMQT 300004 COR
MTRP53
METAR KP53 292356Z AUTO 18007KT 21/18 A2981 RMK AO1 SLP095 T02110183
10211 20183 55006





000
SAUS43 KMQT 292358
MTRP59
METAR KP59 292351Z AUTO 24005KT 17/16 A2976 RMK AO1 SLP076 60002
T01720161 10178 20161 56010





000
SAUS43 KMQT 292304 COR
MTRP53
METAR KP53 292256Z AUTO 18008KT 21/18 A2981 RMK AO1 SLP093 T02110183





000
SAUS43 KMQT 292258
MTRP59
METAR KP59 292251Z AUTO 25006KT 17/16 A2977 RMK AO1 SLP078 P0001
T01720156





000
SAUS43 KMQT 292204 COR
MTRP53
METAR KP53 292156Z AUTO 18012G18KT 21/18 A2981 RMK AO1 SLP096
T02060178





000
SAUS43 KMQT 292157
MTRP59
METAR KP59 292151Z AUTO 20003KT 17/16 A2977 RMK AO1 SLP078 P0001
T01720156





000
SAUS43 KMQT 292104 COR
MTRP53
METAR KP53 292056Z AUTO 19011G19KT 20/18 A2983 RMK AO1 SLP102
T02000178 58024





000
SAUS43 KMQT 292058
MTRP59
METAR KP59 292051Z AUTO 00000KT 17/15 A2980 RMK AO1 SLP087 T01720150
56017





000
SAUS43 KMQT 292004 COR
MTRP53
METAR KP53 291956Z AUTO 18010G17KT 19/17 A2986 RMK AO1 SLP111
T01940172





000
SAUS43 KMQT 291958
MTRP59
METAR KP59 291951Z AUTO VRB05KT 17/15 A2980 RMK AO1 SLP088 T01720150





000
SAUS43 KMQT 291904 COR
MTRP53
METAR KP53 291856Z AUTO 19006KT 19/17 A2989 RMK AO1 SLP121 T01890167





000
SAUS43 KMQT 291857
MTRP59
METAR KP59 291851Z AUTO 21012G21KT 180V250 17/15 A2981 RMK AO1 PK
WND 22027/1829 SLP090 T01670150





000
SAUS43 KMQT 291803 COR
MTRP53
METAR KP53 291756Z AUTO 20007KT 18/16 A2990 RMK AO1 SLP127 P0002
60006 T01830161 10183 20150 56018





000
SAUS43 KMQT 291759
MTRP59
METAR KP59 291751Z AUTO 22010G22KT 17/14 A2984 RMK AO1 SLP103
T01720144 10172 20156 58020





000
SAUS43 KMQT 291704 COR
MTRP53
METAR KP53 291656Z AUTO 16008G16KT 18/16 A2991 RMK AO1 SLP130 P0003
T01780156





000
SAUS43 KMQT 291659
MTRP59
METAR KP59 291651Z AUTO 20009G15KT 180V240 16/14 A2987 RMK AO1
SLP113 T01610144





000
SAUS43 KMQT 291604 COR
MTRP53
METAR KP53 291556Z AUTO 16009G17KT 17/15 A2993 RMK AO1 SLP137
T01720150





000
SAUS43 KMQT 291559
MTRP59
METAR KP59 291551Z AUTO 19008KT 160V220 16/14 A2990 RMK AO1 SLP123
T01610139





000
SAUS43 KMQT 291504 COR
MTRP53
METAR KP53 291456Z AUTO 16009G15KT 140V200 18/14 A2996 RMK AO1
SLP145 60001 T01780139 58015





000
SAUS43 KMQT 291458
MTRP59
METAR KP59 291451Z AUTO VRB05KT 17/13 A2990 RMK AO1 SLP123 T01670133
58014





000
SAUS43 KMQT 291403 COR
MTRP53
METAR KP53 291356Z AUTO 17007KT 17/14 A2997 RMK AO1 SLP150 T01720144





000
SAUS43 KMQT 291359
MTRP59
METAR KP59 291351Z AUTO 17/13 A2992 RMK AO1 SLP130 T01670133





000
SAUS43 KMQT 291304 COR
MTRP53
METAR KP53 291256Z AUTO 17007KT 16/13 A2999 RMK AO1 SLP156 P0001
T01560133





000
SAUS43 KMQT 291259
MTRP59
METAR KP59 291251Z AUTO 21009G17KT 17/13 A2993 RMK AO1 SLP134
T01670133





000
SAUS43 KMQT 291204 COR
MTRP53
METAR KP53 291156Z AUTO VRB03KT 15/12 A3000 RMK AO1 SLP160 T01500122
10156 20139 56006





000
SAUS43 KMQT 291159
MTRP59
METAR KP59 291151Z AUTO 21008G17KT 16/13 A2995 RMK AO1 SLP138
T01610133 10167 20156 58004





000
SAUS43 KMQT 291103 COR
MTRP53
METAR KP53 291056Z AUTO VRB05KT 16/11 A3001 RMK AO1 SLP162 T01560111





000
SAUS43 KMQT 291059
MTRP59
METAR KP59 291051Z AUTO 22007G14KT 16/13 A2995 RMK AO1 SLP138
T01610133





000
SAUS43 KMQT 291003 COR
MTRP53
METAR KP53 290956Z AUTO 19005KT 15/11 A3001 RMK AO1 SLP163 T01500111





000
SAUS43 KMQT 290958
MTRP59
METAR KP59 290951Z AUTO 23007KT 17/14 A2996 RMK AO1 SLP140 T01670139





000
SAUS43 KMQT 290903 COR
MTRP53
METAR KP53 290856Z AUTO 21006KT 14/11 A3002 RMK AO1 SLP166 T01440111
56014





000
SAUS43 KMQT 290858
MTRP59
METAR KP59 290851Z AUTO 24007KT 16/14 A2996 RMK AO1 SLP139 T01610139
58010





000
SAUS43 KMQT 290803 COR
MTRP53
METAR KP53 290756Z AUTO 20007KT 14/11 A3003 RMK AO1 SLP169 T01440106





000
SAUS43 KMQT 290759
MTRP59
METAR KP59 290751Z AUTO 23007KT 16/14 A2997 RMK AO1 SLP143 T01610139





000
SAUS43 KMQT 290703 COR
MTRP53
METAR KP53 290656Z AUTO 22007KT 14/10 A3005 RMK AO1 SLP174 T01440100





000
SAUS43 KMQT 290657
MTRP59
METAR KP59 290651Z AUTO 24007KT 16/13 A2998 RMK AO1 SLP148 T01560133





000
SAUS43 KMQT 290603 COR
MTRP53
METAR KP53 290556Z AUTO 19005KT 14/10 A3006 RMK AO1 SLP180 T01390100
10178 20139 55007





000
SAUS43 KMQT 290558
MTRP59
METAR KP59 290551Z AUTO 23008KT 16/13 A2999 RMK AO1 SLP151 T01560133
10161 20150 56017





000
SAUS43 KMQT 290504 COR
MTRP53
METAR KP53 290456Z AUTO 21006KT 14/10 A3006 RMK AO1 SLP179 T01440100
402280072





000
SAUS43 KMQT 290459
MTRP59
METAR KP59 290451Z AUTO 23008KT 16/13 A3000 RMK AO1 SLP155 T01560128
402060100





000
SAUS43 KMQT 290404 COR
MTRP53
METAR KP53 290356Z AUTO 20007KT 14/09 A3007 RMK AO1 SLP182 T01440094





000
SAUS43 KMQT 290357
MTRP59
METAR KP59 290351Z AUTO 24008KT 15/12 A3001 RMK AO1 SLP159 T01500122





000
SAUS43 KMQT 290304 COR
MTRP53
METAR KP53 290256Z AUTO 20007KT 16/10 A3008 RMK AO1 SLP187 T01560100
56001





000
SAUS43 KMQT 290258
MTRP59
METAR KP59 290251Z AUTO 23007KT 15/09 A3004 RMK AO1 SLP169 T01500094
58005





000
SAUS43 KMQT 290204 COR
MTRP53
METAR KP53 290156Z AUTO 20005KT 16/11 A3009 RMK AO1 SLP188 T01610106





000
SAUS43 KMQT 290159
MTRP59
METAR KP59 290151Z AUTO 23008KT 15/09 A3005 RMK AO1 SLP172 T01500094





000
SAUS43 KMQT 290104 COR
MTRP53
METAR KP53 290056Z AUTO 20004KT 17/11 A3008 RMK AO1 SLP189 T01670111





000
SAUS43 KMQT 290059
MTRP59
METAR KP59 290051Z AUTO 22006KT 15/11 A3005 RMK AO1 SLP174 T01500106





000
SAUS43 KMQT 290004 COR
MTRP53
METAR KP53 282356Z AUTO 20008KT 18/11 A3009 RMK AO1 SLP191 T01780111
10228 20178 56007





000
SAUS43 KMQT 282358
MTRP59
METAR KP59 282351Z AUTO VRB05KT 16/09 A3005 RMK AO1 SLP175 T01610094
10206 20161 58013





000
SAUS43 KMQT 282303 COR
MTRP53
METAR KP53 282256Z AUTO 17004KT 19/11 A3009 RMK AO1 SLP191 T01940111





000
SAUS43 KMQT 282258
MTRP59
METAR KP59 282251Z AUTO VRB06KT 18/09 A3007 RMK AO1 SLP179 T01780089





000
SAUS43 KMQT 282204 COR
MTRP53
METAR KP53 282156Z AUTO 02005KT 20/12 A3010 RMK AO1 SLP194 T02000117





000
SAUS43 KMQT 282158
MTRP59
METAR KP59 282151Z AUTO VRB05KT 19/08 A3008 RMK AO1 SLP184 T01940083





000
SAUS43 KMQT 282103 COR
MTRP53
METAR KP53 282056Z AUTO 05008KT 18/11 A3011 RMK AO1 SLP199 T01830111
58013





000
SAUS43 KMQT 282058
MTRP59
METAR KP59 282051Z AUTO VRB06KT 20/07 A3009 RMK AO1 SLP188 T02000072
56014





000
SAUS43 KMQT 282003 COR
MTRP53
METAR KP53 281956Z AUTO 05011KT 19/12 A3012 RMK AO1 SLP202 T01940122





000
SAUS43 KMQT 281958
MTRP59
METAR KP59 281951Z AUTO 22009KT 20/07 A3010 RMK AO1 SLP189 T02000067





000
SAUS43 KMQT 281903 COR
MTRP53
METAR KP53 281856Z AUTO 05009KT 22/11 A3014 RMK AO1 SLP207 T02170106





000
SAUS43 KMQT 281858
MTRP59
METAR KP59 281851Z AUTO 22007KT 190V260 19/07 A3012 RMK AO1 SLP198
T01940067





000
SAUS43 KMQT 281804 COR
MTRP53
METAR KP53 281756Z AUTO VRB05KT 21/07 A3015 RMK AO1 SLP211 T02060067
10211 20083 58008





000
SAUS43 KMQT 281757
MTRP59
METAR KP59 281751Z AUTO 22007KT 200V260 19/08 A3013 RMK AO1 SLP202
T01940078 10194 20122 58005





000
SAUS43 KMQT 281704 COR
MTRP53
METAR KP53 281656Z AUTO 20003KT 20/08 A3017 RMK AO1 SLP217 T02000083





000
SAUS43 KMQT 281658
MTRP59
METAR KP59 281651Z AUTO 23005KT 19/09 A3014 RMK AO1 SLP206 T01890089





000
SAUS43 KMQT 281603 COR
MTRP53
METAR KP53 281556Z AUTO 00000KT 19/07 A3017 RMK AO1 SLP219 T01890067





000
SAUS43 KMQT 281558
MTRP59
METAR KP59 281551Z AUTO 23007KT 19/09 A3015 RMK AO1 SLP208 T01890094





000
SAUS43 KMQT 281504 COR
MTRP53
METAR KP53 281456Z AUTO VRB04KT 19/06 A3017 RMK AO1 SLP219 T01890061
56003





000
SAUS43 KMQT 281457
MTRP59
METAR KP59 281451Z AUTO 24008KT 17/11 A3015 RMK AO1 SLP207 T01720106
55004





000
SAUS43 KMQT 281403 COR
MTRP53
METAR KP53 281356Z AUTO 17005KT 17/06 A3017 RMK AO1 SLP219 T01720056





000
SAUS43 KMQT 281359
MTRP59
METAR KP59 281351Z AUTO VRB06KT 16/09 A3014 RMK AO1 SLP207 T01610094





000
SAUS43 KMQT 281304 COR
MTRP53
METAR KP53 281256Z AUTO 18003KT 12/07 A3018 RMK AO1 SLP222 T01220072





000
SAUS43 KMQT 281257
MTRP59
METAR KP59 281251Z AUTO VRB04KT 14/08 A3015 RMK AO1 SLP207 T01440078





000
SAUS43 KMQT 281203 COR
MTRP53
METAR KP53 281156Z AUTO 18007KT 08/05 A3018 RMK AO1 SLP224 T00830050
10089 20072 53003





000
SAUS43 KMQT 281157
MTRP59
METAR KP59 281151Z AUTO 24005KT 12/07 A3016 RMK AO1 SLP211 T01220067
10122 20100 53002





000
SAUS43 KMQT 281104 COR
MTRP53
METAR KP53 281056Z AUTO 18008KT 08/04 A3017 RMK AO1 SLP220 T00780044





000
SAUS43 KMQT 281059
MTRP59
METAR KP59 281051Z AUTO 25004KT 11/06 A3015 RMK AO1 SLP211 T01110061





000
SAUS43 KMQT 281003 COR
MTRP53
METAR KP53 280956Z AUTO 18008KT 07/04 A3017 RMK AO1 SLP219 T00720044





000
SAUS43 KMQT 280958
MTRP59
METAR KP59 280951Z AUTO 00000KT 10/07 A3015 RMK AO1 SLP209 T01000067





000
SAUS43 KMQT 280904 COR
MTRP53
METAR KP53 280856Z AUTO 19008KT 08/05 A3017 RMK AO1 SLP221 T00780050
55000





000
SAUS43 KMQT 280857
MTRP59
METAR KP59 280851Z AUTO 00000KT 11/06 A3015 RMK AO1 SLP210 T01060061
58000





000
SAUS43 KMQT 280804 COR
MTRP53
METAR KP53 280756Z AUTO 18007KT 08/05 A3017 RMK AO1 SLP219 T00830050





000
SAUS43 KMQT 280758
MTRP59
METAR KP59 280751Z AUTO 26003KT 12/06 A3016 RMK AO1 SLP213 T01170061





000
SAUS43 KMQT 280703 COR
MTRP53
METAR KP53 280656Z AUTO 18007KT 08/06 A3017 RMK AO1 SLP220 T00830056





000
SAUS43 KMQT 280657
MTRP59
METAR KP59 280651Z AUTO 25004KT 11/07 A3016 RMK AO1 SLP212 T01110067





000
SAUS43 KMQT 280603 COR
MTRP53
METAR KP53 280556Z AUTO 18008KT 09/06 A3017 RMK AO1 SLP220 T00890056
10167 20089 53004





000
SAUS43 KMQT 280559
MTRP59
METAR KP59 280551Z AUTO 25003KT 11/07 A3015 RMK AO1 SLP210 T01110067
10167 20111 55001





000
SAUS43 KMQT 280503 COR
MTRP53
METAR KP53 280456Z AUTO 18008KT 09/06 A3016 RMK AO1 SLP217 T00890056
401940089





000
SAUS43 KMQT 280457
MTRP59
METAR KP59 280451Z AUTO 25004KT 12/06 A3015 RMK AO1 SLP208 T01220061
401780117





    US Dept of Commerce
    National Oceanic and Atmospheric Administration
    National Weather Service
    1325 East West Highway
    Silver Spring, MD 20910
    Page Author: NWS Internet Services Team
Disclaimer
Information Quality
Credits
Glossary
Privacy Policy
Freedom of Information Act (FOIA)
About Us
Career Opportunities